createdAt,value
2022-10-07T00:00:52.943Z,10.07
2022-10-07T00:03:22.293Z,10.15
2022-10-07T00:06:10.866Z,8.07
2022-10-07T00:08:39.085Z,10.27
2022-10-07T00:11:11.925Z,10.02
2022-10-07T00:13:40.619Z,9.90
2022-10-07T00:16:13.347Z,12.15
2022-10-07T00:18:41.388Z,8.00
2022-10-07T00:21:11.285Z,8.05
2022-10-07T00:23:39.166Z,10.77
2022-10-07T00:26:07.762Z,12.27
2022-10-07T00:28:36.274Z,11.43
2022-10-07T00:31:12.984Z,8.95
2022-10-07T00:33:40.704Z,13.93
2022-10-07T00:36:14.848Z,9.38
2022-10-07T00:38:41.726Z,11.02
2022-10-07T00:41:16.214Z,13.23
2022-10-07T00:43:42.831Z,7.85
2022-10-07T00:46:33.676Z,12.02
2022-10-07T00:49:04.105Z,8.25
2022-10-07T00:51:33.345Z,6.90
2022-10-07T00:54:02.488Z,10.43
2022-10-07T00:56:29.912Z,11.25
2022-10-07T00:58:59.003Z,14.27
2022-10-07T01:01:26.616Z,9.52
2022-10-07T01:03:54.347Z,12.18
2022-10-07T01:06:21.053Z,11.13
2022-10-07T01:08:52.863Z,8.25
2022-10-07T01:12:04.057Z,11.82
2022-10-07T01:15:01.231Z,7.78
2022-10-07T01:17:52.524Z,8.80
2022-10-07T01:20:19.107Z,8.57
2022-10-07T01:23:18.970Z,9.20
2022-10-07T01:26:21.031Z,16.60
2022-10-07T01:29:17.962Z,10.80
2022-10-07T01:32:01.577Z,9.13
2022-10-07T01:34:28.591Z,11.30
2022-10-07T01:36:59.551Z,9.20
2022-10-07T01:39:32.488Z,11.98
2022-10-07T01:41:59.732Z,8.88
2022-10-07T01:44:30.386Z,9.43
2022-10-07T01:46:58.668Z,8.15
2022-10-07T01:49:25.615Z,12.32
2022-10-07T01:52:04.944Z,13.02
2022-10-07T01:54:47.363Z,11.55
2022-10-07T02:02:53.122Z,10.50
2022-10-07T02:05:32.814Z,13.63
2022-10-07T02:08:39.643Z,11.98
2022-10-07T02:11:06.277Z,9.63
2022-10-07T02:13:47.300Z,9.85
2022-10-07T02:16:25.620Z,14.30
2022-10-07T02:18:53.705Z,8.65
2022-10-07T02:21:25.666Z,9.57
2022-10-07T02:23:54.765Z,9.68
2022-10-07T02:26:23.116Z,17.80
2022-10-07T02:28:52.925Z,12.88
2022-10-07T02:31:24.280Z,9.38
2022-10-07T02:33:54.083Z,10.83
2022-10-07T02:36:28.936Z,11.02
2022-10-07T02:38:56.297Z,10.40
2022-10-07T02:41:33.150Z,10.52
2022-10-07T02:44:22.071Z,10.00
2022-10-07T02:46:54.272Z,10.40
2022-10-07T02:49:23.537Z,26.50
2022-10-07T02:51:59.625Z,19.42
2022-10-07T02:54:32.761Z,14.05
2022-10-07T02:57:01.265Z,14.20
2022-10-07T02:59:29.482Z,19.55
2022-10-07T03:01:59.027Z,13.50
2022-10-07T03:04:25.964Z,14.45
2022-10-07T03:06:52.894Z,15.27
2022-10-07T03:09:19.567Z,20.40
2022-10-07T03:11:46.400Z,16.38
2022-10-07T03:14:13.012Z,17.73
2022-10-07T03:16:39.856Z,15.50
2022-10-07T03:19:06.498Z,15.75
2022-10-07T03:21:34.025Z,18.63
2022-10-07T03:24:04.877Z,13.93
2022-10-07T03:26:33.463Z,10.45
2022-10-07T03:29:01.297Z,11.60
2022-10-07T03:31:28.979Z,11.45
2022-10-07T03:33:57.066Z,11.98
2022-10-07T03:36:24.840Z,12.00
2022-10-07T03:38:52.047Z,14.75
2022-10-07T03:41:19.856Z,16.42
2022-10-07T03:43:46.660Z,18.20
2022-10-07T03:46:13.532Z,11.27
2022-10-07T03:48:40.196Z,26.77
2022-10-07T03:51:06.798Z,18.30
2022-10-07T03:53:33.405Z,18.52
2022-10-07T03:56:00.177Z,21.92
2022-10-07T03:58:27.140Z,16.10
2022-10-07T04:01:10.609Z,19.48
2022-10-07T04:03:37.232Z,17.48
2022-10-07T04:06:04.135Z,16.20
2022-10-07T04:08:32.994Z,13.68
2022-10-07T04:11:01.200Z,14.85
2022-10-07T04:13:28.616Z,20.45
2022-10-07T04:15:55.797Z,20.02
2022-10-07T04:18:22.782Z,13.23
2022-10-07T04:20:49.472Z,19.98
2022-10-07T04:23:17.123Z,24.73
2022-10-07T04:25:46.286Z,19.58
2022-10-07T04:28:19.168Z,24.42
2022-10-07T04:30:51.091Z,21.23
2022-10-07T04:33:22.203Z,14.77
2022-10-07T04:35:50.168Z,12.68
2022-10-07T04:38:18.316Z,20.23
2022-10-07T04:40:49.155Z,25.70
2022-10-07T04:43:21.309Z,20.90
2022-10-07T04:45:49.646Z,21.88
2022-10-07T04:48:21.293Z,15.77
2022-10-07T04:50:48.020Z,19.80
2022-10-07T04:53:16.782Z,20.58
2022-10-07T04:55:48.195Z,25.33
2022-10-07T04:58:16.231Z,27.27
2022-10-07T05:00:45.331Z,28.92
2022-10-07T05:03:14.056Z,25.15
2022-10-07T05:05:42.944Z,42.72
2022-10-07T05:08:10.556Z,45.03
2022-10-07T05:10:41.001Z,36.38
2022-10-07T05:13:12.415Z,32.30
2022-10-07T05:15:54.481Z,27.13
2022-10-07T05:18:22.789Z,31.98
2022-10-07T05:20:49.817Z,26.42
2022-10-07T05:23:18.677Z,28.42
2022-10-07T05:25:45.522Z,23.58
2022-10-07T05:28:13.907Z,24.30
2022-10-07T05:30:41.930Z,33.60
2022-10-07T05:33:10.083Z,19.70
2022-10-07T05:35:36.785Z,16.27
2022-10-07T05:38:03.502Z,22.05
2022-10-07T05:40:30.216Z,17.80
2022-10-07T05:42:57.521Z,13.93
2022-10-07T05:45:25.788Z,24.58
2022-10-07T05:47:53.034Z,21.27
2022-10-07T05:50:19.784Z,13.82
2022-10-07T05:52:46.519Z,18.30
2022-10-07T05:55:13.142Z,12.88
2022-10-07T05:57:40.040Z,10.63
2022-10-07T06:00:07.381Z,13.38
2022-10-07T06:02:34.378Z,14.98
2022-10-07T06:05:01.268Z,13.15
2022-10-07T06:07:29.684Z,18.58
2022-10-07T06:10:14.944Z,12.20
2022-10-07T06:13:00.435Z,10.98
2022-10-07T06:15:27.040Z,8.75
2022-10-07T06:17:53.688Z,10.88
2022-10-07T06:20:20.343Z,17.80
2022-10-07T06:22:47.208Z,12.13
2022-10-07T06:25:13.964Z,17.85
2022-10-07T06:27:40.696Z,13.18
2022-10-07T06:30:08.336Z,18.25
2022-10-07T06:32:34.975Z,20.65
2022-10-07T06:35:01.663Z,18.85
2022-10-07T06:37:32.178Z,14.20
2022-10-07T06:39:59.827Z,17.45
2022-10-07T06:42:26.653Z,9.90
2022-10-07T06:44:56.075Z,11.43
2022-10-07T06:47:22.759Z,15.50
2022-10-07T06:49:49.401Z,12.23
2022-10-07T06:52:16.176Z,15.52
2022-10-07T06:54:42.945Z,15.00
2022-10-07T06:57:26.701Z,11.27
2022-10-07T06:59:56.646Z,14.85
2022-10-07T07:02:25.650Z,12.82
2022-10-07T07:04:57.235Z,10.55
2022-10-07T07:07:24.915Z,9.77
2022-10-07T07:09:52.329Z,12.27
2022-10-07T07:12:18.987Z,14.85
2022-10-07T07:14:45.859Z,24.67
2022-10-07T07:17:12.557Z,14.32
2022-10-07T07:19:39.710Z,7.85
2022-10-07T07:22:07.087Z,6.10
2022-10-07T07:24:33.728Z,15.98
2022-10-07T07:27:00.751Z,8.57
2022-10-07T07:29:27.549Z,8.15
2022-10-07T07:31:54.901Z,8.70
2022-10-07T07:34:21.609Z,8.68
2022-10-07T07:36:51.940Z,9.10
2022-10-07T07:39:19.980Z,8.13
2022-10-07T07:41:47.930Z,9.70
2022-10-07T07:44:18.059Z,4.10
2022-10-07T07:46:49.194Z,3.05
2022-10-07T07:49:16.775Z,6.50
2022-10-07T07:51:43.659Z,7.35
2022-10-07T07:54:12.113Z,5.63
2022-10-07T07:56:39.733Z,7.07
2022-10-07T07:59:08.301Z,7.25
2022-10-07T08:01:35.776Z,5.57
2022-10-07T08:04:04.241Z,5.43
2022-10-07T08:06:31.610Z,9.18
2022-10-07T08:08:59.228Z,5.05
2022-10-07T08:11:27.075Z,6.38
2022-10-07T08:13:56.435Z,5.45
2022-10-07T08:16:25.964Z,10.95
2022-10-07T08:18:54.297Z,5.90
2022-10-07T08:21:22.955Z,8.35
2022-10-07T08:23:54.798Z,4.10
2022-10-07T08:26:21.695Z,10.35
2022-10-07T08:28:49.224Z,7.18
2022-10-07T08:31:18.976Z,5.63
2022-10-07T08:33:48.149Z,7.75
2022-10-07T08:36:20.438Z,2.60
2022-10-07T08:38:50.443Z,9.88
2022-10-07T08:41:26.257Z,4.72
2022-10-07T08:43:52.799Z,8.27
2022-10-07T08:46:25.067Z,9.55
2022-10-07T08:49:15.741Z,6.10
2022-10-07T08:51:48.699Z,11.63
2022-10-07T08:54:19.732Z,5.00
2022-10-07T08:56:49.085Z,4.22
2022-10-07T08:59:33.041Z,5.70
2022-10-07T09:02:18.519Z,2.80
2022-10-07T09:05:00.328Z,4.28
2022-10-07T09:07:36.989Z,10.30
2022-10-07T09:10:09.783Z,4.43
2022-10-07T09:12:44.401Z,9.25
2022-10-07T09:15:23.659Z,5.78
2022-10-07T09:18:02.529Z,4.47
2022-10-07T09:20:36.759Z,7.13
2022-10-07T09:23:05.704Z,2.55
2022-10-07T09:25:34.981Z,4.70
2022-10-07T09:28:01.639Z,10.98
2022-10-07T09:30:29.801Z,4.18
2022-10-07T09:32:58.514Z,5.68
2022-10-07T09:35:27.294Z,3.88
2022-10-07T09:37:58.552Z,2.83
2022-10-07T09:40:57.949Z,6.05
2022-10-07T09:43:26.198Z,5.70
2022-10-07T09:45:53.423Z,4.97
2022-10-07T09:48:33.479Z,5.38
2022-10-07T09:51:13.837Z,12.27
2022-10-07T09:53:58.860Z,6.20
2022-10-07T09:56:54.855Z,9.02
2022-10-07T09:59:27.451Z,9.52
2022-10-07T10:02:00.225Z,3.70
2022-10-07T10:04:37.955Z,9.15
2022-10-07T10:07:19.568Z,2.97
2022-10-07T10:09:57.464Z,2.38
2022-10-07T10:12:25.763Z,3.30
2022-10-07T10:14:54.805Z,1.52
2022-10-07T10:17:26.977Z,1.85
2022-10-07T10:19:53.915Z,3.50
2022-10-07T10:22:30.572Z,3.55
2022-10-07T10:25:16.320Z,3.03
2022-10-07T10:28:01.754Z,7.90
2022-10-07T10:30:30.387Z,3.05
2022-10-07T10:33:40.595Z,4.53
2022-10-07T10:36:17.781Z,8.57
2022-10-07T10:38:47.138Z,5.95
2022-10-07T10:41:35.605Z,2.53
2022-10-07T10:44:22.591Z,1.52
2022-10-07T10:47:04.180Z,2.00
2022-10-07T10:49:36.843Z,4.78
2022-10-07T10:52:18.160Z,2.47
2022-10-07T10:54:56.853Z,6.45
2022-10-07T10:57:46.179Z,19.02
2022-10-07T11:00:23.646Z,1.50
2022-10-07T11:02:59.714Z,7.00
2022-10-07T11:05:38.518Z,2.22
2022-10-07T11:08:37.068Z,3.08
2022-10-07T11:11:09.001Z,2.67
2022-10-07T11:14:00.187Z,3.17
2022-10-07T11:16:47.064Z,1.63
2022-10-07T11:19:35.805Z,2.17
2022-10-07T11:22:03.459Z,3.60
2022-10-07T11:24:40.733Z,7.70
2022-10-07T11:27:25.888Z,1.58
2022-10-07T11:30:19.340Z,4.50
2022-10-07T11:33:04.845Z,2.28
2022-10-07T11:35:37.678Z,2.38
2022-10-07T11:38:10.062Z,1.92
2022-10-07T11:40:51.485Z,4.90
2022-10-07T11:43:29.381Z,3.95
2022-10-07T11:46:01.657Z,2.30
2022-10-07T11:48:42.903Z,3.95
2022-10-07T11:51:18.210Z,2.67
2022-10-07T11:53:45.236Z,3.88
2022-10-07T11:56:44.379Z,8.45
2022-10-07T11:59:29.324Z,5.22
2022-10-07T12:01:56.271Z,3.50
2022-10-07T12:04:35.476Z,1.95
2022-10-07T12:07:34.983Z,6.38
2022-10-07T12:10:04.986Z,2.22
2022-10-07T12:12:47.677Z,1.35
2022-10-07T12:15:26.706Z,4.07
2022-10-07T12:17:57.208Z,2.70
2022-10-07T12:20:52.749Z,1.52
2022-10-07T12:23:29.570Z,1.20
2022-10-07T12:26:00.550Z,6.03
2022-10-07T12:28:36.642Z,1.42
2022-10-07T12:31:26.370Z,3.80
2022-10-07T12:33:58.567Z,1.90
2022-10-07T12:36:27.851Z,1.60
2022-10-07T12:38:57.545Z,1.80
2022-10-07T12:41:40.158Z,5.65
2022-10-07T12:44:25.709Z,3.40
2022-10-07T12:47:19.235Z,4.03
2022-10-07T12:50:02.554Z,5.95
2022-10-07T12:52:56.829Z,2.10
2022-10-07T12:55:31.789Z,2.38
2022-10-07T12:58:17.934Z,2.58
2022-10-07T13:01:11.917Z,2.08
2022-10-07T13:03:53.733Z,2.42
2022-10-07T13:06:40.989Z,5.70
2022-10-07T13:09:19.812Z,3.25
2022-10-07T13:12:10.090Z,6.55
2022-10-07T13:14:46.043Z,3.25
2022-10-07T13:17:25.021Z,5.18
2022-10-07T13:20:15.669Z,5.80
2022-10-07T13:22:50.173Z,2.47
2022-10-07T13:25:20.494Z,3.25
2022-10-07T13:27:54.788Z,5.20
2022-10-07T13:30:42.047Z,8.27
2022-10-07T13:33:28.371Z,6.43
2022-10-07T13:36:18.333Z,3.05
2022-10-07T13:38:47.330Z,3.40
2022-10-07T13:41:24.517Z,2.38
2022-10-07T13:43:54.912Z,4.93
2022-10-07T13:46:25.232Z,4.72
2022-10-07T13:48:55.156Z,2.08
2022-10-07T13:51:30.687Z,12.25
2022-10-07T13:53:59.886Z,4.22
2022-10-07T13:56:41.088Z,3.47
2022-10-07T13:59:16.020Z,2.47
2022-10-07T14:01:43.273Z,5.35
2022-10-07T14:04:22.058Z,11.02
2022-10-07T14:06:56.066Z,2.28
2022-10-07T14:09:31.997Z,5.05
2022-10-07T14:12:07.236Z,4.35
2022-10-07T14:14:38.539Z,2.60
2022-10-07T14:17:21.113Z,3.47
2022-10-07T14:19:59.172Z,4.65
2022-10-07T14:22:39.116Z,3.10
2022-10-07T14:25:16.897Z,5.00
2022-10-07T14:27:47.221Z,5.38
2022-10-07T14:30:55.819Z,3.25
2022-10-07T14:34:08.976Z,4.93
2022-10-07T14:36:36.238Z,3.13
2022-10-07T14:39:23.374Z,5.95
2022-10-07T14:41:50.034Z,10.55
2022-10-07T14:44:18.308Z,3.97
2022-10-07T14:46:44.948Z,7.38
2022-10-07T14:49:11.893Z,3.42
2022-10-07T14:51:38.869Z,5.63
2022-10-07T14:54:07.438Z,5.60
2022-10-07T14:56:36.669Z,7.13
2022-10-07T14:59:03.378Z,5.63
2022-10-07T15:01:30.115Z,5.53
2022-10-07T15:03:57.987Z,7.00
2022-10-07T15:06:25.258Z,9.88
2022-10-07T15:08:51.972Z,4.93
2022-10-07T15:11:21.160Z,7.00
2022-10-07T15:13:50.140Z,7.75
2022-10-07T15:16:20.224Z,7.38
2022-10-07T15:18:52.180Z,5.97
2022-10-07T15:21:20.484Z,5.18
2022-10-07T15:23:54.228Z,5.03
2022-10-07T15:26:24.508Z,11.82
2022-10-07T15:28:56.805Z,3.38
2022-10-07T15:31:26.257Z,3.22
2022-10-07T15:33:57.382Z,7.13
2022-10-07T15:36:26.162Z,3.63
2022-10-07T15:38:53.454Z,2.67
2022-10-07T15:41:46.242Z,10.20
2022-10-07T15:44:22.110Z,3.92
2022-10-07T15:46:52.667Z,7.45
2022-10-07T15:49:19.494Z,6.65
2022-10-07T15:51:46.942Z,4.03
2022-10-07T15:54:13.817Z,3.90
2022-10-07T15:56:41.608Z,6.50
2022-10-07T15:59:08.687Z,7.95
2022-10-07T16:01:35.821Z,8.07
2022-10-07T16:04:03.781Z,8.48
2022-10-07T16:06:33.793Z,4.90
2022-10-07T16:09:01.107Z,10.52
2022-10-07T16:11:29.175Z,4.32
2022-10-07T16:13:56.156Z,6.90
2022-10-07T16:16:25.526Z,9.93
2022-10-07T16:18:54.139Z,10.45
2022-10-07T16:21:23.873Z,9.07
2022-10-07T16:23:55.027Z,7.30
2022-10-07T16:26:24.586Z,7.70
2022-10-07T16:29:10.858Z,11.82
2022-10-07T16:31:42.614Z,9.93
2022-10-07T16:34:11.431Z,6.97
2022-10-07T16:36:42.234Z,8.63
2022-10-07T16:39:11.856Z,5.40
2022-10-07T16:41:41.908Z,18.35
2022-10-07T16:44:09.452Z,7.15
2022-10-07T16:46:37.030Z,12.85
2022-10-07T16:49:08.599Z,11.98
2022-10-07T16:51:37.255Z,9.57
2022-10-07T16:54:13.023Z,20.05
2022-10-07T16:56:44.152Z,17.52
2022-10-07T16:59:13.336Z,8.90
2022-10-07T17:01:40.414Z,7.07
2022-10-07T17:04:08.213Z,9.23
2022-10-07T17:06:35.148Z,10.25
2022-10-07T17:09:04.648Z,22.05
2022-10-07T17:11:36.631Z,9.25
2022-10-07T17:14:17.878Z,8.43
2022-10-07T17:16:49.958Z,12.48
2022-10-07T17:19:20.450Z,12.25
2022-10-07T17:21:49.196Z,4.97
2022-10-07T17:24:17.367Z,5.95
2022-10-07T17:26:45.456Z,7.53
2022-10-07T17:29:14.748Z,7.78
2022-10-07T17:31:43.544Z,10.40
2022-10-07T17:34:11.923Z,11.10
2022-10-07T17:36:39.404Z,6.22
2022-10-07T17:39:06.550Z,9.15
2022-10-07T17:41:38.404Z,8.73
2022-10-07T17:44:11.080Z,14.15
2022-10-07T17:46:39.528Z,10.93
2022-10-07T17:49:08.599Z,9.00
2022-10-07T17:51:37.435Z,12.02
2022-10-07T17:54:06.045Z,7.40
2022-10-07T17:56:34.332Z,8.75
2022-10-07T17:59:01.421Z,13.15
2022-10-07T18:01:31.114Z,10.43
2022-10-07T18:04:00.249Z,10.60
2022-10-07T18:06:31.261Z,21.48
2022-10-07T18:09:03.205Z,19.13
2022-10-07T18:11:49.256Z,12.25
2022-10-07T18:14:34.594Z,11.73
2022-10-07T18:17:01.352Z,12.15
2022-10-07T18:19:29.651Z,14.85
2022-10-07T18:21:56.786Z,18.35
2022-10-07T18:24:27.640Z,14.98
2022-10-07T18:26:59.473Z,17.35
2022-10-07T18:29:31.647Z,17.17
2022-10-07T18:32:00.650Z,16.05
2022-10-07T18:34:27.443Z,16.95
2022-10-07T18:36:56.933Z,20.77
2022-10-07T18:39:25.274Z,14.48
2022-10-07T18:41:51.968Z,14.32
2022-10-07T18:44:19.866Z,14.55
2022-10-07T18:46:46.442Z,12.15
2022-10-07T18:49:13.942Z,7.50
2022-10-07T18:51:41.052Z,8.02
2022-10-07T18:54:07.815Z,16.02
2022-10-07T18:56:38.418Z,17.17
2022-10-07T18:59:07.814Z,18.55
2022-10-07T19:01:34.592Z,15.57
2022-10-07T19:04:02.562Z,9.90
2022-10-07T19:06:31.431Z,18.23
2022-10-07T19:09:00.393Z,8.43
2022-10-07T19:11:29.412Z,14.50
2022-10-07T19:13:58.993Z,8.15
2022-10-07T19:16:34.522Z,14.90
2022-10-07T19:19:04.244Z,22.42
2022-10-07T19:21:32.207Z,18.10
2022-10-07T19:24:01.831Z,15.93
2022-10-07T19:26:35.271Z,18.90
2022-10-07T19:29:02.890Z,18.00
2022-10-07T19:31:32.345Z,23.05
2022-10-07T19:34:02.325Z,24.50
2022-10-07T19:36:35.174Z,25.10
2022-10-07T19:39:02.306Z,16.95
2022-10-07T19:41:31.474Z,18.52
2022-10-07T19:43:58.599Z,20.30
2022-10-07T19:46:28.317Z,22.13
2022-10-07T19:48:58.311Z,19.48
2022-10-07T19:51:27.327Z,31.98
2022-10-07T19:54:00.001Z,23.60
2022-10-07T19:56:29.150Z,18.05
2022-10-07T19:58:57.841Z,27.08
2022-10-07T20:01:27.196Z,16.13
2022-10-07T20:03:59.269Z,21.90
2022-10-07T20:06:26.736Z,14.10
2022-10-07T20:08:54.146Z,15.70
2022-10-07T20:11:20.887Z,16.83
2022-10-07T20:13:48.253Z,14.25
2022-10-07T20:16:18.168Z,15.68
2022-10-07T20:18:47.255Z,15.45
2022-10-07T20:21:20.672Z,15.75
2022-10-07T20:23:48.568Z,26.88
2022-10-07T20:26:19.143Z,20.20
2022-10-07T20:28:52.467Z,12.95
2022-10-07T20:31:22.299Z,15.25
2022-10-07T20:33:51.947Z,15.43
2022-10-07T20:36:21.611Z,15.50
2022-10-07T20:39:31.815Z,12.05
2022-10-07T20:42:17.374Z,12.50
2022-10-07T20:44:44.189Z,18.65
2022-10-07T20:47:10.965Z,22.88
2022-10-07T20:49:41.451Z,10.82
2022-10-07T20:52:17.408Z,13.10
2022-10-07T20:54:45.509Z,16.63
2022-10-07T20:57:13.973Z,14.48
2022-10-07T20:59:40.694Z,17.73
2022-10-07T21:02:09.653Z,17.45
2022-10-07T21:04:37.439Z,17.00
2022-10-07T21:07:04.454Z,18.60
2022-10-07T21:09:36.232Z,13.32
2022-10-07T21:12:05.172Z,12.15
2022-10-07T21:14:31.847Z,14.45
2022-10-07T21:16:59.028Z,15.43
2022-10-07T21:19:25.914Z,16.10
2022-10-07T21:21:52.919Z,9.93
2022-10-07T21:24:19.788Z,13.55
2022-10-07T21:26:47.056Z,21.83
2022-10-07T21:29:14.368Z,13.57
2022-10-07T21:31:42.370Z,18.40
2022-10-07T21:34:10.175Z,20.13
2022-10-07T21:36:40.818Z,14.27
2022-10-07T21:39:07.561Z,11.15
2022-10-07T21:41:35.653Z,10.38
2022-10-07T21:44:04.566Z,8.30
2022-10-07T21:46:32.707Z,11.70
2022-10-07T21:48:59.827Z,7.95
2022-10-07T21:51:27.441Z,10.52
2022-10-07T21:53:55.602Z,10.70
2022-10-07T21:56:22.252Z,15.95
2022-10-07T21:58:53.359Z,17.42
2022-10-07T22:01:22.825Z,11.93
2022-10-07T22:03:54.352Z,13.85
2022-10-07T22:06:21.656Z,10.73
2022-10-07T22:08:49.569Z,10.23
2022-10-07T22:11:19.780Z,15.65
2022-10-07T22:13:55.039Z,17.15
2022-10-07T22:16:22.975Z,27.23
2022-10-07T22:18:52.005Z,26.85
2022-10-07T22:21:21.286Z,35.88
2022-10-07T22:23:50.591Z,31.67
2022-10-07T22:26:19.178Z,28.88
2022-10-07T22:28:48.564Z,24.90
2022-10-07T22:31:16.247Z,21.30
2022-10-07T22:33:44.400Z,21.42
2022-10-07T22:36:13.369Z,17.20
2022-10-07T22:38:43.501Z,17.65
2022-10-07T22:41:14.054Z,31.48
2022-10-07T22:43:46.836Z,31.95
2022-10-07T22:46:16.780Z,14.60
2022-10-07T22:48:44.382Z,18.17
2022-10-07T22:51:13.304Z,16.73
2022-10-07T22:53:46.567Z,19.77
2022-10-07T22:56:16.671Z,18.52
2022-10-07T22:58:51.053Z,14.30
2022-10-07T23:01:18.149Z,17.80
2022-10-07T23:03:45.785Z,19.98
2022-10-07T23:06:18.030Z,14.38
2022-10-07T23:08:45.983Z,17.98
2022-10-07T23:11:16.126Z,16.15
2022-10-07T23:13:42.872Z,16.55
2022-10-07T23:16:12.554Z,19.23
2022-10-07T23:18:42.655Z,11.23
2022-10-07T23:21:18.275Z,12.27
2022-10-07T23:23:48.003Z,13.73
2022-10-07T23:26:18.926Z,14.23
2022-10-07T23:28:50.404Z,12.60
2022-10-07T23:31:19.000Z,12.10
2022-10-07T23:33:47.841Z,11.65
2022-10-07T23:36:16.109Z,13.40
2022-10-07T23:38:46.007Z,11.40
2022-10-07T23:41:14.705Z,14.98
2022-10-07T23:43:41.680Z,13.95
2022-10-07T23:46:13.284Z,13.68
2022-10-07T23:48:41.179Z,15.75
2022-10-07T23:51:10.247Z,13.88
2022-10-07T23:53:36.883Z,16.67
2022-10-07T23:56:03.696Z,15.27
2022-10-07T23:58:31.429Z,18.75
